createdAt,value
2022-08-07T00:00:39.959Z,102137.16
2022-08-07T00:03:07.265Z,102147.59
2022-08-07T00:05:36.301Z,102139.13
2022-08-07T00:08:04.968Z,102140.47
2022-08-07T00:10:31.830Z,102153.53
2022-08-07T00:13:01.070Z,102146.88
2022-08-07T00:15:35.961Z,102124.25
2022-08-07T00:18:05.299Z,102134.28
2022-08-07T00:20:34.369Z,102115.78
2022-08-07T00:23:02.772Z,102136.56
2022-08-07T00:25:37.257Z,102147.31
2022-08-07T00:28:04.376Z,102140.53
2022-08-07T00:30:31.490Z,102136.66
2022-08-07T00:32:58.859Z,102144.00
2022-08-07T00:35:25.914Z,102134.56
2022-08-07T00:37:53.176Z,102134.72
2022-08-07T00:40:40.023Z,102145.97
2022-08-07T00:43:09.699Z,102128.06
2022-08-07T00:45:38.678Z,102135.31
2022-08-07T00:48:09.436Z,102114.44
2022-08-07T00:50:46.594Z,102129.44
2022-08-07T00:53:17.631Z,102122.69
2022-08-07T00:56:00.603Z,102109.38
2022-08-07T00:58:30.070Z,102126.00
2022-08-07T01:00:56.546Z,102120.00
2022-08-07T01:03:54.583Z,102131.00
2022-08-07T01:06:10.231Z,102118.47
2022-08-07T01:08:51.251Z,102143.34
2022-08-07T01:12:09.489Z,102126.31
2022-08-07T01:14:07.972Z,102133.47
2022-08-07T01:16:37.072Z,102125.28
2022-08-07T01:19:14.827Z,102146.44
2022-08-07T01:21:46.889Z,102100.88
2022-08-07T01:24:14.651Z,102115.75
2022-08-07T01:26:52.241Z,102136.63
2022-08-07T01:29:22.462Z,102070.56
2022-08-07T01:31:50.474Z,102120.75
2022-08-07T01:34:20.335Z,102101.28
2022-08-07T01:36:58.129Z,102109.59
2022-08-07T01:39:39.585Z,102127.88
2022-08-07T01:42:37.725Z,102127.16
2022-08-07T01:44:54.632Z,102094.66
2022-08-07T01:48:20.292Z,102125.81
2022-08-07T01:50:08.611Z,102126.22
2022-08-07T01:52:39.119Z,102132.06
2022-08-07T01:55:22.186Z,102123.09
2022-08-07T01:58:05.573Z,102118.69
2022-08-07T02:00:35.586Z,102135.09
2022-08-07T02:03:21.384Z,102145.09
2022-08-07T02:05:59.622Z,102133.66
2022-08-07T02:08:29.334Z,102135.69
2022-08-07T02:10:59.671Z,102123.94
2022-08-07T02:13:56.512Z,102124.84
2022-08-07T02:16:19.913Z,102123.28
2022-08-07T02:18:56.100Z,102114.91
2022-08-07T02:21:24.226Z,102103.47
2022-08-07T02:23:53.171Z,102135.31
2022-08-07T02:26:32.759Z,102126.09
2022-08-07T02:29:02.507Z,102123.41
2022-08-07T02:31:31.054Z,102137.53
2022-08-07T02:34:03.541Z,102134.63
2022-08-07T02:36:33.819Z,102121.59
2022-08-07T02:39:16.413Z,102135.19
2022-08-07T02:41:54.961Z,102087.31
2022-08-07T02:44:26.897Z,102140.94
2022-08-07T02:46:59.913Z,102119.06
2022-08-07T02:49:58.754Z,102136.03
2022-08-07T02:52:21.563Z,102134.50
2022-08-07T02:55:00.748Z,102125.75
2022-08-07T02:57:28.713Z,102111.88
2022-08-07T03:00:01.339Z,102118.78
2022-08-07T03:02:32.584Z,102092.91
2022-08-07T03:05:00.710Z,102127.75
2022-08-07T03:08:05.301Z,102121.13
2022-08-07T03:10:20.025Z,102125.47
2022-08-07T03:12:51.146Z,102125.44
2022-08-07T03:15:30.182Z,102142.41
2022-08-07T03:18:06.459Z,102137.56
2022-08-07T03:20:33.228Z,102126.72
2022-08-07T03:23:02.659Z,102129.66
2022-08-07T03:25:40.343Z,102138.47
2022-08-07T03:28:37.763Z,102117.09
2022-08-07T03:31:18.609Z,102139.78
2022-08-07T03:33:48.962Z,102122.38
2022-08-07T03:36:17.730Z,102106.91
2022-08-07T03:38:45.568Z,102115.53
2022-08-07T03:41:14.683Z,102124.78
2022-08-07T03:43:56.755Z,102115.00
2022-08-07T03:46:25.612Z,102135.88
2022-08-07T03:49:03.144Z,102140.13
2022-08-07T03:51:47.054Z,102129.41
2022-08-07T03:54:36.279Z,102147.50
2022-08-07T03:57:03.962Z,102133.47
2022-08-07T03:59:34.083Z,102132.19
2022-08-07T04:02:01.068Z,102142.19
2022-08-07T04:04:28.092Z,102139.09
2022-08-07T04:07:00.085Z,102129.03
2022-08-07T04:09:44.867Z,102147.53
2022-08-07T04:12:26.487Z,102125.44
2022-08-07T04:14:57.103Z,102128.22
2022-08-07T04:17:23.827Z,102135.78
2022-08-07T04:20:12.239Z,102118.78
2022-08-07T04:22:53.685Z,102128.13
2022-08-07T04:25:29.058Z,102112.84
2022-08-07T04:28:00.270Z,102132.56
2022-08-07T04:30:40.208Z,102149.09
2022-08-07T04:33:15.581Z,102133.28
2022-08-07T04:35:50.507Z,102140.44
2022-08-07T04:38:18.065Z,102132.84
2022-08-07T04:40:52.816Z,102147.09
2022-08-07T04:44:09.888Z,102150.22
2022-08-07T04:46:40.023Z,102099.88
2022-08-07T04:49:37.844Z,102129.25
2022-08-07T04:52:30.240Z,102154.09
2022-08-07T04:55:14.875Z,102151.63
2022-08-07T04:58:26.584Z,102156.16
2022-08-07T05:00:56.245Z,102162.56
2022-08-07T05:04:06.743Z,102158.97
2022-08-07T05:06:51.588Z,102143.97
2022-08-07T05:09:45.909Z,102145.00
2022-08-07T05:12:27.140Z,102159.88
2022-08-07T05:15:21.609Z,102141.69
2022-08-07T05:18:00.475Z,102150.78
2022-08-07T05:20:32.469Z,102160.75
2022-08-07T05:23:04.352Z,102162.47
2022-08-07T05:26:01.928Z,102168.25
2022-08-07T05:28:23.416Z,102145.41
2022-08-07T05:30:56.773Z,102147.03
2022-08-07T05:33:23.787Z,102137.13
2022-08-07T05:35:53.363Z,102160.56
2022-08-07T05:39:00.981Z,102147.78
2022-08-07T05:41:16.745Z,102154.53
2022-08-07T05:44:01.545Z,102127.78
2022-08-07T05:46:37.640Z,102164.31
2022-08-07T05:49:11.753Z,102156.19
2022-08-07T05:51:40.065Z,102128.56
2022-08-07T05:54:12.227Z,102155.06
2022-08-07T05:56:55.391Z,102165.34
2022-08-07T05:59:25.252Z,102165.31
2022-08-07T06:01:57.077Z,102150.97
2022-08-07T06:04:29.848Z,102146.25
2022-08-07T06:07:03.711Z,102146.59
2022-08-07T06:10:06.437Z,102161.19
2022-08-07T06:25:10.144Z,102138.38
2022-08-07T06:36:13.264Z,102167.28
2022-08-07T06:46:53.249Z,102160.50
2022-08-07T06:49:50.949Z,102125.91
2022-08-07T06:52:31.501Z,102183.59
2022-08-07T07:02:57.561Z,102122.19
2022-08-07T07:06:23.950Z,102152.88
2022-08-07T07:17:08.296Z,102118.47
2022-08-07T07:20:21.580Z,102125.25
2022-08-07T07:24:08.775Z,102119.38
2022-08-07T07:26:36.931Z,102101.13
2022-08-07T07:30:10.101Z,102164.00
2022-08-07T07:39:54.713Z,102112.31
2022-08-07T09:09:20.955Z,102099.47
2022-08-07T09:16:43.843Z,102050.53
2022-08-07T09:28:00.107Z,102086.69
2022-08-07T10:14:00.824Z,102043.38
2022-08-07T10:17:14.509Z,102047.28
2022-08-07T10:46:01.121Z,101979.22
2022-08-07T10:52:37.257Z,101993.56
2022-08-07T11:21:06.830Z,101954.09
2022-08-07T11:24:21.688Z,101922.25
2022-08-07T11:27:02.190Z,101953.81
2022-08-07T11:29:42.516Z,101941.53
2022-08-07T11:37:06.693Z,101948.34
2022-08-07T11:40:20.465Z,101947.34
2022-08-07T11:43:08.899Z,101946.19
2022-08-07T11:50:31.431Z,101940.59
2022-08-07T11:53:01.089Z,101922.19
2022-08-07T11:56:14.009Z,101909.31
2022-08-07T11:59:22.164Z,101897.38
2022-08-07T12:02:38.142Z,101908.97
2022-08-07T12:06:39.959Z,101934.84
2022-08-07T12:09:09.324Z,101920.16
2022-08-07T12:12:09.414Z,101922.63
2022-08-07T12:14:55.661Z,101915.19
2022-08-07T12:17:34.139Z,101911.44
2022-08-07T12:20:29.628Z,101889.84
2022-08-07T12:24:05.800Z,101919.28
2022-08-07T12:26:35.405Z,101909.72
2022-08-07T12:29:38.421Z,101912.09
2022-08-07T12:32:29.921Z,101917.06
2022-08-07T12:35:00.995Z,101879.63
2022-08-07T12:38:09.261Z,101885.25
2022-08-07T12:40:47.109Z,101894.63
2022-08-07T12:43:11.013Z,101882.00
2022-08-07T12:46:15.791Z,101888.47
2022-08-07T12:49:10.082Z,101866.97
2022-08-07T12:52:13.965Z,101877.66
2022-08-07T12:54:55.089Z,101867.09
2022-08-07T12:57:39.267Z,101861.06
2022-08-07T13:00:30.969Z,101857.91
2022-08-07T13:03:26.812Z,101878.59
2022-08-07T13:06:54.493Z,101873.75
2022-08-07T13:10:19.770Z,101883.31
2022-08-07T13:13:01.386Z,101870.13
2022-08-07T13:15:59.057Z,101845.31
2022-08-07T13:18:49.156Z,101871.69
2022-08-07T13:21:51.759Z,101866.25
2022-08-07T13:24:29.164Z,101838.34
2022-08-07T13:27:05.454Z,101865.91
2022-08-07T13:29:59.169Z,101861.56
2022-08-07T13:32:31.695Z,101861.25
2022-08-07T13:35:21.420Z,101858.88
2022-08-07T13:38:01.835Z,101846.03
2022-08-07T13:40:42.411Z,101848.94
2022-08-07T13:43:17.541Z,101841.25
2022-08-07T13:46:11.226Z,101832.72
2022-08-07T13:48:59.470Z,101818.72
2022-08-07T13:52:05.051Z,101827.31
2022-08-07T13:54:37.982Z,101827.84
2022-08-07T13:57:24.245Z,101812.38
2022-08-07T14:00:00.378Z,101815.88
2022-08-07T14:02:39.557Z,101804.63
2022-08-07T14:05:14.336Z,101821.19
2022-08-07T14:08:00.788Z,101823.91
2022-08-07T14:10:43.524Z,101818.47
2022-08-07T14:13:16.097Z,101809.66
2022-08-07T14:15:53.504Z,101828.69
2022-08-07T14:18:39.795Z,101804.72
2022-08-07T14:22:01.788Z,101813.22
2022-08-07T14:24:22.999Z,101813.84
2022-08-07T14:26:57.675Z,101805.81
2022-08-07T14:30:05.354Z,101791.09
2022-08-07T14:32:25.012Z,101793.75
2022-08-07T14:34:53.538Z,101786.50
2022-08-07T14:37:23.775Z,101766.69
2022-08-07T14:40:16.272Z,101804.78
2022-08-07T14:42:59.980Z,101794.81
2022-08-07T14:45:50.179Z,101787.94
2022-08-07T14:48:20.376Z,101790.00
2022-08-07T14:50:51.001Z,101789.09
2022-08-07T14:54:05.532Z,101785.88
2022-08-07T14:56:13.180Z,101783.34
2022-08-07T14:58:54.178Z,101789.88
2022-08-07T15:01:42.714Z,101795.66
2022-08-07T15:04:18.840Z,101777.69
2022-08-07T15:06:47.750Z,101784.09
2022-08-07T15:09:57.233Z,101772.53
2022-08-07T15:12:10.268Z,101784.50
2022-08-07T15:15:07.683Z,101773.19
2022-08-07T15:17:54.638Z,101772.41
2022-08-07T15:20:33.130Z,101789.66
2022-08-07T15:23:20.247Z,101772.59
2022-08-07T15:26:03.394Z,101762.59
2022-08-07T15:32:00.470Z,101777.25
2022-08-07T15:34:15.111Z,101776.47
2022-08-07T15:39:57.927Z,101758.03
2022-08-07T15:42:47.916Z,101764.97
2022-08-07T15:45:21.710Z,101740.09
2022-08-07T15:48:13.229Z,101757.38
2022-08-07T15:51:02.083Z,101745.88
2022-08-07T15:53:52.165Z,101753.13
2022-08-07T15:56:24.692Z,101744.06
2022-08-07T15:59:04.073Z,101738.84
2022-08-07T16:01:39.267Z,101732.25
2022-08-07T16:04:15.323Z,101722.81
2022-08-07T16:06:51.957Z,101728.84
2022-08-07T16:09:41.997Z,101719.97
2022-08-07T16:12:28.880Z,101719.19
2022-08-07T16:15:57.738Z,101749.19
2022-08-07T16:18:49.984Z,101738.88
2022-08-07T16:22:17.933Z,101743.00
2022-08-07T16:25:54.491Z,101730.56
2022-08-07T16:30:05.841Z,101751.72
2022-08-07T16:31:58.222Z,101747.44
2022-08-07T16:34:52.294Z,101743.00
2022-08-07T16:38:06.046Z,101728.75
2022-08-07T16:41:01.907Z,101737.91
2022-08-07T16:44:05.577Z,101736.19
2022-08-07T16:47:02.978Z,101751.41
2022-08-07T16:50:28.843Z,101755.50
2022-08-07T16:54:01.444Z,101746.78
2022-08-07T17:00:16.467Z,101704.91
2022-08-07T17:03:58.233Z,101732.72
2022-08-07T17:06:45.353Z,101714.97
2022-08-07T17:10:07.381Z,101746.28
2022-08-07T17:20:23.177Z,101744.75
2022-08-07T17:23:14.863Z,101749.19
2022-08-07T17:26:00.142Z,101737.00
2022-08-07T17:34:08.646Z,101750.41
2022-08-07T17:35:58.851Z,101733.63
2022-08-07T17:38:37.284Z,101760.75
2022-08-07T17:42:07.481Z,101719.59
2022-08-07T17:44:50.546Z,101752.22
2022-08-07T17:47:53.936Z,101757.66
2022-08-07T17:50:34.130Z,101749.16
2022-08-07T17:54:00.407Z,101703.09
2022-08-07T17:56:28.604Z,101741.44
2022-08-07T17:58:56.929Z,101751.69
2022-08-07T18:01:36.839Z,101742.78
2022-08-07T18:21:02.499Z,101724.44
2022-08-07T18:23:42.314Z,101719.47
2022-08-07T21:13:43.906Z,101805.56
2022-08-07T21:56:16.726Z,101811.19
2022-08-07T21:59:30.321Z,101835.53
2022-08-07T22:06:30.598Z,101780.28
2022-08-07T22:12:57.759Z,101803.63
2022-08-07T22:18:59.532Z,101828.28
2022-08-07T22:22:40.074Z,101797.59
2022-08-07T22:32:46.654Z,101801.25
2022-08-07T22:35:25.331Z,101794.09
2022-08-07T22:38:25.593Z,101843.03
2022-08-07T22:41:07.566Z,101845.78
2022-08-07T22:44:04.710Z,101836.41
2022-08-07T22:47:11.316Z,101853.41
2022-08-07T22:50:20.905Z,101848.66
2022-08-07T22:54:05.375Z,101850.63
2022-08-07T23:04:36.108Z,101864.41
2022-08-07T23:07:44.287Z,101855.22
2022-08-07T23:10:42.584Z,101796.97
2022-08-07T23:14:10.837Z,101848.72
2022-08-07T23:17:08.621Z,101860.19
2022-08-07T23:20:51.915Z,101854.50
2022-08-07T23:24:06.781Z,101870.13
2022-08-07T23:26:25.293Z,101867.75
2022-08-07T23:30:36.362Z,101831.25
2022-08-07T23:34:21.200Z,101845.97
2022-08-07T23:36:10.701Z,101845.97
2022-08-07T23:38:55.819Z,101840.03
2022-08-07T23:42:02.079Z,101824.84
2022-08-07T23:44:45.461Z,101833.91
2022-08-07T23:47:42.456Z,101847.06
2022-08-07T23:50:33.662Z,101863.66
2022-08-07T23:53:51.752Z,101827.97
2022-08-07T23:56:53.961Z,101868.16
